sensor_id;sensor_type;location;lat;lon;timestamp;pressure;altitude;pressure_sealevel;temperature;humidity
71938;BME280;59810;48.800;9.086;2023-04-21T00:01:02;97278.41;;;3.62;100.00
71938;BME280;59810;48.800;9.086;2023-04-21T00:03:28;97273.69;;;3.64;100.00
71938;BME280;59810;48.800;9.086;2023-04-21T00:05:57;97265.47;;;3.65;100.00
71938;BME280;59810;48.800;9.086;2023-04-21T00:08:23;97275.31;;;3.65;100.00
71938;BME280;59810;48.800;9.086;2023-04-21T00:10:48;97265.69;;;3.64;100.00
71938;BME280;59810;48.800;9.086;2023-04-21T00:13:16;97273.63;;;3.70;100.00
71938;BME280;59810;48.800;9.086;2023-04-21T00:15:41;97273.41;;;3.72;100.00
71938;BME280;59810;48.800;9.086;2023-04-21T00:18:07;97266.00;;;3.74;100.00
71938;BME280;59810;48.800;9.086;2023-04-21T00:20:34;97274.19;;;3.79;100.00
71938;BME280;59810;48.800;9.086;2023-04-21T00:22:59;97267.00;;;3.80;100.00
71938;BME280;59810;48.800;9.086;2023-04-21T00:25:24;97270.47;;;3.80;100.00
71938;BME280;59810;48.800;9.086;2023-04-21T00:27:50;97266.56;;;3.83;100.00
71938;BME280;59810;48.800;9.086;2023-04-21T00:30:16;97265.56;;;3.77;100.00
71938;BME280;59810;48.800;9.086;2023-04-21T00:32:44;97269.66;;;3.80;100.00
71938;BME280;59810;48.800;9.086;2023-04-21T00:35:09;97264.31;;;3.80;100.00
71938;BME280;59810;48.800;9.086;2023-04-21T00:37:35;97260.84;;;3.79;100.00
71938;BME280;59810;48.800;9.086;2023-04-21T00:40:00;97254.91;;;3.77;100.00
71938;BME280;59810;48.800;9.086;2023-04-21T00:42:26;97254.94;;;3.70;100.00
71938;BME280;59810;48.800;9.086;2023-04-21T00:44:51;97261.09;;;3.71;100.00
71938;BME280;59810;48.800;9.086;2023-04-21T00:47:18;97254.56;;;3.67;100.00
71938;BME280;59810;48.800;9.086;2023-04-21T00:49:44;97252.06;;;3.72;100.00
71938;BME280;59810;48.800;9.086;2023-04-21T00:52:10;97249.22;;;3.67;100.00
71938;BME280;59810;48.800;9.086;2023-04-21T00:54:41;97239.78;;;3.64;100.00
71938;BME280;59810;48.800;9.086;2023-04-21T00:57:07;97243.88;;;3.67;100.00
71938;BME280;59810;48.800;9.086;2023-04-21T00:59:33;97246.56;;;3.67;100.00
71938;BME280;59810;48.800;9.086;2023-04-21T01:01:58;97237.72;;;3.66;100.00
71938;BME280;59810;48.800;9.086;2023-04-21T01:04:24;97247.38;;;3.67;100.00
71938;BME280;59810;48.800;9.086;2023-04-21T01:06:50;97250.84;;;3.68;100.00
71938;BME280;59810;48.800;9.086;2023-04-21T01:09:18;97241.59;;;3.70;100.00
71938;BME280;59810;48.800;9.086;2023-04-21T01:12:08;97241.22;;;3.67;100.00
71938;BME280;59810;48.800;9.086;2023-04-21T01:14:35;97235.88;;;3.67;100.00
71938;BME280;59810;48.800;9.086;2023-04-21T01:17:01;97249.22;;;3.67;100.00
71938;BME280;59810;48.800;9.086;2023-04-21T01:19:31;97239.78;;;3.64;100.00
71938;BME280;59810;48.800;9.086;2023-04-21T01:22:00;97235.06;;;3.66;100.00
71938;BME280;59810;48.800;9.086;2023-04-21T01:24:42;97236.75;;;3.61;100.00
71938;BME280;59810;48.800;9.086;2023-04-21T01:27:13;97234.28;;;3.59;100.00
71938;BME280;59810;48.800;9.086;2023-04-21T01:29:40;97235.09;;;3.60;100.00
71938;BME280;59810;48.800;9.086;2023-04-21T01:32:14;97231.84;;;3.58;100.00
71938;BME280;59810;48.800;9.086;2023-04-21T01:34:43;97236.53;;;3.56;100.00
71938;BME280;59810;48.800;9.086;2023-04-21T01:37:11;97240.25;;;3.55;100.00
71938;BME280;59810;48.800;9.086;2023-04-21T01:39:41;97239.22;;;3.56;100.00
71938;BME280;59810;48.800;9.086;2023-04-21T01:42:07;97239.22;;;3.56;100.00
71938;BME280;59810;48.800;9.086;2023-04-21T01:44:33;97241.28;;;3.54;100.00
71938;BME280;59810;48.800;9.086;2023-04-21T01:46:59;97235.94;;;3.54;100.00
71938;BME280;59810;48.800;9.086;2023-04-21T01:49:24;97234.91;;;3.55;100.00
71938;BME280;59810;48.800;9.086;2023-04-21T01:51:52;97240.84;;;3.57;100.00
71938;BME280;59810;48.800;9.086;2023-04-21T01:54:17;97245.38;;;3.56;100.00
71938;BME280;59810;48.800;9.086;2023-04-21T01:56:43;97245.19;;;3.58;100.00
71938;BME280;59810;48.800;9.086;2023-04-21T01:59:08;97234.91;;;3.55;100.00
71938;BME280;59810;48.800;9.086;2023-04-21T02:01:34;97238.63;;;3.54;100.00
71938;BME280;59810;48.800;9.086;2023-04-21T02:04:01;97233.72;;;3.51;100.00
71938;BME280;59810;48.800;9.086;2023-04-21T02:06:26;97238.66;;;3.47;100.00
71938;BME280;59810;48.800;9.086;2023-04-21T02:08:54;97237.03;;;3.46;100.00
71938;BME280;59810;48.800;9.086;2023-04-21T02:11:19;97234.56;;;3.44;100.00
71938;BME280;59810;48.800;9.086;2023-04-21T02:13:45;97240.94;;;3.43;100.00
71938;BME280;59810;48.800;9.086;2023-04-21T02:16:10;97235.81;;;3.42;100.00
71938;BME280;59810;48.800;9.086;2023-04-21T02:18:36;97239.31;;;3.42;100.00
71938;BME280;59810;48.800;9.086;2023-04-21T02:21:04;97229.66;;;3.41;100.00
71938;BME280;59810;48.800;9.086;2023-04-21T02:23:30;97232.16;;;3.36;100.00
71938;BME280;59810;48.800;9.086;2023-04-21T02:25:56;97239.19;;;3.31;100.00
71938;BME280;59810;48.800;9.086;2023-04-21T02:28:21;97233.47;;;3.21;100.00
71938;BME280;59810;48.800;9.086;2023-04-21T02:30:46;97240.47;;;3.15;100.00
71938;BME280;59810;48.800;9.086;2023-04-21T02:33:12;97229.84;;;3.08;100.00
71938;BME280;59810;48.800;9.086;2023-04-21T02:35:37;97231.50;;;3.03;100.00
71938;BME280;59810;48.800;9.086;2023-04-21T02:38:02;97242.00;;;2.91;100.00
71938;BME280;59810;48.800;9.086;2023-04-21T02:40:31;97231.56;;;2.83;100.00
71938;BME280;59810;48.800;9.086;2023-04-21T02:42:57;97241.41;;;2.83;100.00
71938;BME280;59810;48.800;9.086;2023-04-21T02:45:22;97245.72;;;2.84;100.00
71938;BME280;59810;48.800;9.086;2023-04-21T02:47:47;97237.94;;;2.82;100.00
71938;BME280;59810;48.800;9.086;2023-04-21T02:50:13;97240.41;;;2.77;100.00
71938;BME280;59810;48.800;9.086;2023-04-21T02:52:40;97241.03;;;2.79;100.00
71938;BME280;59810;48.800;9.086;2023-04-21T02:55:06;97242.44;;;2.81;100.00
71938;BME280;59810;48.800;9.086;2023-04-21T02:57:31;97252.13;;;2.69;100.00
71938;BME280;59810;48.800;9.086;2023-04-21T02:59:57;97247.22;;;2.66;100.00
71938;BME280;59810;48.800;9.086;2023-04-21T03:02:22;97243.56;;;2.61;100.00
71938;BME280;59810;48.800;9.086;2023-04-21T03:04:47;97238.63;;;2.64;100.00
71938;BME280;59810;48.800;9.086;2023-04-21T03:07:13;97239.44;;;2.65;100.00
71938;BME280;59810;48.800;9.086;2023-04-21T03:09:39;97240.25;;;2.65;100.00
71938;BME280;59810;48.800;9.086;2023-04-21T03:12:04;97233.66;;;2.74;100.00
71938;BME280;59810;48.800;9.086;2023-04-21T03:14:30;97233.91;;;2.66;100.00
71938;BME280;59810;48.800;9.086;2023-04-21T03:16:55;97227.56;;;2.61;100.00
71938;BME280;59810;48.800;9.086;2023-04-21T03:19:21;97221.59;;;2.59;100.00
71938;BME280;59810;48.800;9.086;2023-04-21T03:21:46;97215.66;;;2.63;100.00
71938;BME280;59810;48.800;9.086;2023-04-21T03:24:11;97219.53;;;2.67;100.00
71938;BME280;59810;48.800;9.086;2023-04-21T03:26:40;97223.41;;;2.71;100.00
71938;BME280;59810;48.800;9.086;2023-04-21T03:29:08;97224.03;;;2.73;100.00
71938;BME280;59810;48.800;9.086;2023-04-21T03:31:33;97222.81;;;2.69;100.00
71938;BME280;59810;48.800;9.086;2023-04-21T03:33:59;97225.91;;;2.66;100.00
71938;BME280;59810;48.800;9.086;2023-04-21T03:36:24;97224.69;;;2.62;100.00
71938;BME280;59810;48.800;9.086;2023-04-21T03:38:50;97224.06;;;2.60;100.00
71938;BME280;59810;48.800;9.086;2023-04-21T03:41:15;97226.13;;;2.65;100.00
71938;BME280;59810;48.800;9.086;2023-04-21T03:43:40;97223.03;;;2.68;100.00
71938;BME280;59810;48.800;9.086;2023-04-21T03:46:06;97222.78;;;2.76;100.00
71938;BME280;59810;48.800;9.086;2023-04-21T03:48:34;97221.38;;;2.73;100.00
71938;BME280;59810;48.800;9.086;2023-04-21T03:51:02;97216.84;;;2.74;100.00
71938;BME280;59810;48.800;9.086;2023-04-21T03:53:32;97231.59;;;2.76;100.00
71938;BME280;59810;48.800;9.086;2023-04-21T03:55:57;97227.91;;;2.77;100.00
71938;BME280;59810;48.800;9.086;2023-04-21T03:58:22;97217.28;;;2.71;100.00
71938;BME280;59810;48.800;9.086;2023-04-21T04:00:50;97222.59;;;2.71;100.00
71938;BME280;59810;48.800;9.086;2023-04-21T04:03:15;97219.13;;;2.70;100.00
71938;BME280;59810;48.800;9.086;2023-04-21T04:05:41;97229.97;;;2.75;100.00
71938;BME280;59810;48.800;9.086;2023-04-21T04:08:06;97224.66;;;2.69;100.00
71938;BME280;59810;48.800;9.086;2023-04-21T04:10:36;97228.78;;;2.65;100.00
71938;BME280;59810;48.800;9.086;2023-04-21T04:13:02;97221.41;;;2.60;100.00
71938;BME280;59810;48.800;9.086;2023-04-21T04:15:27;97225.06;;;2.59;100.00
71938;BME280;59810;48.800;9.086;2023-04-21T04:17:55;97227.34;;;2.62;100.00
71938;BME280;59810;48.800;9.086;2023-04-21T04:20:23;97227.56;;;2.61;100.00
71938;BME280;59810;48.800;9.086;2023-04-21T04:22:48;97216.69;;;2.62;100.00
71938;BME280;59810;48.800;9.086;2023-04-21T04:25:14;97223.84;;;2.68;100.00
71938;BME280;59810;48.800;9.086;2023-04-21T04:27:43;97229.59;;;2.65;100.00
71938;BME280;59810;48.800;9.086;2023-04-21T04:30:10;97234.53;;;2.62;100.00
71938;BME280;59810;48.800;9.086;2023-04-21T04:32:38;97230.03;;;2.62;100.00
71938;BME280;59810;48.800;9.086;2023-04-21T04:35:05;97234.09;;;2.65;100.00
71938;BME280;59810;48.800;9.086;2023-04-21T04:37:30;97233.91;;;2.66;100.00
71938;BME280;59810;48.800;9.086;2023-04-21T04:39:55;97221.59;;;2.65;100.00
71938;BME280;59810;48.800;9.086;2023-04-21T04:42:22;97229.19;;;2.68;100.00
71938;BME280;59810;48.800;9.086;2023-04-21T04:44:52;97230.00;;;2.69;100.00
71938;BME280;59810;48.800;9.086;2023-04-21T04:47:17;97231.41;;;2.71;100.00
71938;BME280;59810;48.800;9.086;2023-04-21T04:49:45;97229.13;;;2.81;100.00
71938;BME280;59810;48.800;9.086;2023-04-21T04:52:11;97235.44;;;2.87;100.00
71938;BME280;59810;48.800;9.086;2023-04-21T04:54:38;97239.53;;;2.90;100.00
71938;BME280;59810;48.800;9.086;2023-04-21T04:57:06;97238.94;;;2.88;100.00
71938;BME280;59810;48.800;9.086;2023-04-21T04:59:31;97238.50;;;2.91;100.00
71938;BME280;59810;48.800;9.086;2023-04-21T05:01:59;97242.22;;;2.96;100.00
71938;BME280;59810;48.800;9.086;2023-04-21T05:04:24;97252.06;;;2.96;100.00
71938;BME280;59810;48.800;9.086;2023-04-21T05:06:50;97249.38;;;2.89;100.00
71938;BME280;59810;48.800;9.086;2023-04-21T05:09:16;97253.69;;;2.90;100.00
71938;BME280;59810;48.800;9.086;2023-04-21T05:11:41;97256.34;;;2.97;100.00
71938;BME280;59810;48.800;9.086;2023-04-21T05:14:06;97259.41;;;3.00;100.00
71938;BME280;59810;48.800;9.086;2023-04-21T05:16:47;97261.44;;;3.05;100.00
71938;BME280;59810;48.800;9.086;2023-04-21T05:19:12;97269.47;;;2.98;100.00
71938;BME280;59810;48.800;9.086;2023-04-21T05:21:37;97268.59;;;3.11;100.00
71938;BME280;59810;48.800;9.086;2023-04-21T05:24:07;97263.47;;;3.09;100.00
71938;BME280;59810;48.800;9.086;2023-04-21T05:26:33;97270.81;;;3.21;100.00
71938;BME280;59810;48.800;9.086;2023-04-21T05:28:58;97272.88;;;3.25;100.00
71938;BME280;59810;48.800;9.086;2023-04-21T05:31:26;97267.69;;;3.30;100.00
71938;BME280;59810;48.800;9.086;2023-04-21T05:33:53;97278.72;;;3.40;100.00
71938;BME280;59810;48.800;9.086;2023-04-21T05:36:21;97280.53;;;3.47;100.00
71938;BME280;59810;48.800;9.086;2023-04-21T05:38:49;97283.81;;;3.49;100.00
71938;BME280;59810;48.800;9.086;2023-04-21T05:41:18;97279.44;;;3.61;100.00
71938;BME280;59810;48.800;9.086;2023-04-21T05:43:45;97287.81;;;3.71;100.00
71938;BME280;59810;48.800;9.086;2023-04-21T05:46:11;97286.94;;;3.77;100.00
71938;BME280;59810;48.800;9.086;2023-04-21T05:48:36;97288.19;;;3.74;100.00
71938;BME280;59810;48.800;9.086;2023-04-21T05:51:12;97273.41;;;3.72;100.00
71938;BME280;59810;48.800;9.086;2023-04-21T05:53:43;97271.31;;;3.81;100.00
71938;BME280;59810;48.800;9.086;2023-04-21T05:56:08;97273.09;;;3.87;100.00
71938;BME280;59810;48.800;9.086;2023-04-21T05:58:34;97272.03;;;3.94;100.00
71938;BME280;59810;48.800;9.086;2023-04-21T06:01:00;97271.78;;;4.02;100.00
71938;BME280;59810;48.800;9.086;2023-04-21T06:03:26;97275.75;;;3.93;98.71
71938;BME280;59810;48.800;9.086;2023-04-21T06:05:53;97271.91;;;3.83;95.33
71938;BME280;59810;48.800;9.086;2023-04-21T06:08:19;97267.09;;;3.66;96.32
71938;BME280;59810;48.800;9.086;2023-04-21T06:10:44;97262.84;;;3.59;96.94
71938;BME280;59810;48.800;9.086;2023-04-21T06:13:12;97262.84;;;3.59;99.98
71938;BME280;59810;48.800;9.086;2023-04-21T06:15:37;97262.19;;;3.63;100.00
71938;BME280;59810;48.800;9.086;2023-04-21T06:18:02;97264.22;;;3.68;100.00
71938;BME280;59810;48.800;9.086;2023-04-21T06:20:28;97253.66;;;3.80;100.00
71938;BME280;59810;48.800;9.086;2023-04-21T06:22:56;97259.13;;;3.91;100.00
71938;BME280;59810;48.800;9.086;2023-04-21T06:25:21;97266.72;;;3.94;98.57
71938;BME280;59810;48.800;9.086;2023-04-21T06:27:46;97265.63;;;4.02;98.85
71938;BME280;59810;48.800;9.086;2023-04-21T06:30:12;97265.84;;;4.68;100.00
71938;BME280;59810;48.800;9.086;2023-04-21T06:32:38;97271.25;;;4.80;100.00
71938;BME280;59810;48.800;9.086;2023-04-21T06:35:03;97265.91;;;4.62;100.00
71938;BME280;59810;48.800;9.086;2023-04-21T06:37:29;97272.75;;;4.58;98.83
71938;BME280;59810;48.800;9.086;2023-04-21T06:39:54;97274.09;;;4.67;97.99
71938;BME280;59810;48.800;9.086;2023-04-21T06:42:19;97270.75;;;4.72;98.50
71938;BME280;59810;48.800;9.086;2023-04-21T06:44:49;97269.63;;;4.79;96.56
71938;BME280;59810;48.800;9.086;2023-04-21T06:47:15;97269.13;;;4.89;97.54
71938;BME280;59810;48.800;9.086;2023-04-21T06:49:41;97270.69;;;4.96;98.25
71938;BME280;59810;48.800;9.086;2023-04-21T06:52:06;97263.03;;;5.00;96.65
71938;BME280;59810;48.800;9.086;2023-04-21T06:54:31;97267.25;;;5.08;96.64
71938;BME280;59810;48.800;9.086;2023-04-21T06:56:57;97264.72;;;5.13;98.23
71938;BME280;59810;48.800;9.086;2023-04-21T06:59:22;97270.44;;;5.16;96.90
71938;BME280;59810;48.800;9.086;2023-04-21T07:01:48;97261.31;;;5.24;97.64
71938;BME280;59810;48.800;9.086;2023-04-21T07:04:16;97261.31;;;5.24;96.98
71938;BME280;59810;48.800;9.086;2023-04-21T07:06:42;97258.66;;;5.24;98.09
71938;BME280;59810;48.800;9.086;2023-04-21T07:09:08;97259.91;;;5.21;98.82
71938;BME280;59810;48.800;9.086;2023-04-21T07:11:33;97258.47;;;5.19;98.58
71938;BME280;59810;48.800;9.086;2023-04-21T07:13:58;97254.38;;;5.16;99.75
71938;BME280;59810;48.800;9.086;2023-04-21T07:16:26;97261.53;;;5.22;99.96
71938;BME280;59810;48.800;9.086;2023-04-21T07:18:51;97262.41;;;5.16;99.19
71938;BME280;59810;48.800;9.086;2023-04-21T07:21:19;97261.53;;;5.22;99.92
71938;BME280;59810;48.800;9.086;2023-04-21T07:23:45;97261.31;;;5.24;100.00
71938;BME280;59810;48.800;9.086;2023-04-21T07:26:10;97257.81;;;5.23;100.00
71938;BME280;59810;48.800;9.086;2023-04-21T07:28:36;97265.19;;;5.28;100.00
71938;BME280;59810;48.800;9.086;2023-04-21T07:31:02;97257.72;;;5.30;100.00
71938;BME280;59810;48.800;9.086;2023-04-21T07:33:27;97247.97;;;5.36;100.00
71938;BME280;59810;48.800;9.086;2023-04-21T07:35:55;97248.69;;;5.43;100.00
71938;BME280;59810;48.800;9.086;2023-04-21T07:38:21;97260.94;;;5.50;100.00
71938;BME280;59810;48.800;9.086;2023-04-21T07:40:46;97243.19;;;5.56;100.00
71938;BME280;59810;48.800;9.086;2023-04-21T07:43:12;97250.06;;;5.63;100.00
71938;BME280;59810;48.800;9.086;2023-04-21T07:45:37;97240.44;;;5.74;100.00
71938;BME280;59810;48.800;9.086;2023-04-21T07:48:03;97239.06;;;5.83;100.00
71938;BME280;59810;48.800;9.086;2023-04-21T07:50:30;97241.59;;;5.97;100.00
71938;BME280;59810;48.800;9.086;2023-04-21T07:52:55;97243.47;;;6.08;100.00
71938;BME280;59810;48.800;9.086;2023-04-21T07:55:23;97241.03;;;6.18;100.00
71938;BME280;59810;48.800;9.086;2023-04-21T07:57:48;97239.19;;;6.30;99.23
71938;BME280;59810;48.800;9.086;2023-04-21T08:00:14;97236.03;;;6.45;100.00
71938;BME280;59810;48.800;9.086;2023-04-21T08:02:40;97235.56;;;6.60;99.52
71938;BME280;59810;48.800;9.086;2023-04-21T08:05:06;97230.44;;;6.70;97.63
71938;BME280;59810;48.800;9.086;2023-04-21T08:07:31;97230.19;;;6.83;96.67
71938;BME280;59810;48.800;9.086;2023-04-21T08:09:59;97226.44;;;6.96;96.01
71938;BME280;59810;48.800;9.086;2023-04-21T08:12:25;97225.34;;;7.08;94.89
71938;BME280;59810;48.800;9.086;2023-04-21T08:14:53;97225.56;;;7.18;94.47
71938;BME280;59810;48.800;9.086;2023-04-21T08:17:20;97222.50;;;7.27;92.38
71938;BME280;59810;48.800;9.086;2023-04-21T08:19:46;97222.19;;;7.40;91.97
71938;BME280;59810;48.800;9.086;2023-04-21T08:22:11;97219.97;;;7.48;92.52
71938;BME280;59810;48.800;9.086;2023-04-21T08:24:36;97214.28;;;7.62;91.91
71938;BME280;59810;48.800;9.086;2023-04-21T08:27:02;97222.53;;;7.72;91.56
71938;BME280;59810;48.800;9.086;2023-04-21T08:29:27;97220.75;;;7.77;91.66
71938;BME280;59810;48.800;9.086;2023-04-21T08:31:53;97216.53;;;7.82;90.08
71938;BME280;59810;48.800;9.086;2023-04-21T08:34:18;97210.91;;;8.00;94.18
71938;BME280;59810;48.800;9.086;2023-04-21T08:36:44;97206.78;;;8.26;93.26
71938;BME280;59810;48.800;9.086;2023-04-21T08:39:11;97210.28;;;8.43;92.82
71938;BME280;59810;48.800;9.086;2023-04-21T08:41:38;97212.91;;;8.55;94.39
71938;BME280;59810;48.800;9.086;2023-04-21T08:44:04;97206.78;;;8.59;93.45
71938;BME280;59810;48.800;9.086;2023-04-21T08:46:31;97193.25;;;8.76;91.53
71938;BME280;59810;48.800;9.086;2023-04-21T08:48:57;97200.94;;;8.84;84.59
71938;BME280;59810;48.800;9.086;2023-04-21T08:51:23;97197.75;;;8.87;85.81
71938;BME280;59810;48.800;9.086;2023-04-21T08:53:53;97204.94;;;9.03;83.88
71938;BME280;59810;48.800;9.086;2023-04-21T08:56:19;97204.94;;;9.03;84.66
71938;BME280;59810;48.800;9.086;2023-04-21T08:58:44;97204.13;;;9.03;82.33
71938;BME280;59810;48.800;9.086;2023-04-21T09:01:09;97214.03;;;9.19;83.05
71938;BME280;59810;48.800;9.086;2023-04-21T09:03:36;97208.13;;;9.22;84.26
71938;BME280;59810;48.800;9.086;2023-04-21T09:06:06;97210.13;;;9.32;80.87
71938;BME280;59810;48.800;9.086;2023-04-21T09:08:40;97209.66;;;9.40;81.57
71938;BME280;59810;48.800;9.086;2023-04-21T09:11:06;97207.66;;;9.52;81.08
71938;BME280;59810;48.800;9.086;2023-04-21T09:13:35;97202.06;;;9.59;81.61
71938;BME280;59810;48.800;9.086;2023-04-21T09:16:03;97203.78;;;9.70;82.07
71938;BME280;59810;48.800;9.086;2023-04-21T09:18:30;97205.03;;;9.84;81.30
71938;BME280;59810;48.800;9.086;2023-04-21T09:21:19;97194.53;;;9.88;81.52
71938;BME280;59810;48.800;9.086;2023-04-21T09:23:46;97187.09;;;10.00;77.99
71938;BME280;59810;48.800;9.086;2023-04-21T09:26:13;97185.78;;;10.08;79.11
71938;BME280;59810;48.800;9.086;2023-04-21T09:28:42;97190.44;;;10.12;80.70
71938;BME280;59810;48.800;9.086;2023-04-21T09:31:18;97178.41;;;10.25;79.42
71938;BME280;59810;48.800;9.086;2023-04-21T09:33:51;97191.97;;;10.35;78.61
71938;BME280;59810;48.800;9.086;2023-04-21T09:36:24;97188.28;;;10.46;79.19
71938;BME280;59810;48.800;9.086;2023-04-21T09:41:21;97186.50;;;10.67;78.90
71938;BME280;59810;48.800;9.086;2023-04-21T09:43:50;97173.03;;;10.72;77.78
71938;BME280;59810;48.800;9.086;2023-04-21T09:46:18;97180.66;;;10.80;77.92
71938;BME280;59810;48.800;9.086;2023-04-21T09:48:46;97184.47;;;10.89;77.69
71938;BME280;59810;48.800;9.086;2023-04-21T09:51:12;97180.22;;;11.04;74.61
71938;BME280;59810;48.800;9.086;2023-04-21T09:53:39;97180.31;;;11.24;74.24
71938;BME280;59810;48.800;9.086;2023-04-21T09:56:09;97174.97;;;11.39;75.08
71938;BME280;59810;48.800;9.086;2023-04-21T09:58:53;97182.56;;;11.47;75.12
71938;BME280;59810;48.800;9.086;2023-04-21T10:01:23;97174.72;;;11.56;74.41
71938;BME280;59810;48.800;9.086;2023-04-21T10:03:51;97170.44;;;11.75;75.37
71938;BME280;59810;48.800;9.086;2023-04-21T10:06:18;97180.19;;;11.76;75.69
71938;BME280;59810;48.800;9.086;2023-04-21T10:08:44;97162.09;;;11.82;72.02
71938;BME280;59810;48.800;9.086;2023-04-21T10:11:10;97155.88;;;11.97;74.92
71938;BME280;59810;48.800;9.086;2023-04-21T10:13:36;97156.97;;;12.06;73.24
71938;BME280;59810;48.800;9.086;2023-04-21T10:16:09;97158.59;;;12.17;73.83
71938;BME280;59810;48.800;9.086;2023-04-21T10:18:44;97156.69;;;12.23;73.84
71938;BME280;59810;48.800;9.086;2023-04-21T10:21:11;97155.31;;;12.30;70.61
71938;BME280;59810;48.800;9.086;2023-04-21T10:23:44;97160.47;;;12.42;73.24
71938;BME280;59810;48.800;9.086;2023-04-21T10:26:13;97155.03;;;12.47;70.46
71938;BME280;59810;48.800;9.086;2023-04-21T10:28:46;97155.28;;;12.51;69.61
71938;BME280;59810;48.800;9.086;2023-04-21T10:31:32;97169.88;;;12.70;70.54
71938;BME280;59810;48.800;9.086;2023-04-21T10:39:27;97152.16;;;13.08;69.52
71938;BME280;59810;48.800;9.086;2023-04-21T10:41:57;97153.78;;;13.04;69.09
71938;BME280;59810;48.800;9.086;2023-04-21T10:44:27;97161.06;;;13.19;69.62
71938;BME280;59810;48.800;9.086;2023-04-21T10:46:53;97151.53;;;13.26;68.18
71938;BME280;59810;48.800;9.086;2023-04-21T10:49:26;97152.00;;;13.44;67.61
71938;BME280;59810;48.800;9.086;2023-04-21T10:57:08;97137.66;;;13.82;68.17
71938;BME280;59810;48.800;9.086;2023-04-21T10:59:36;97134.00;;;13.97;65.43
71938;BME280;59810;48.800;9.086;2023-04-21T11:02:03;97129.34;;;14.02;64.74
71938;BME280;59810;48.800;9.086;2023-04-21T11:04:29;97138.94;;;14.24;67.79
71938;BME280;59810;48.800;9.086;2023-04-21T11:09:39;97132.78;;;14.47;63.31
71938;BME280;59810;48.800;9.086;2023-04-21T11:12:10;97140.44;;;14.69;64.26
71938;BME280;59810;48.800;9.086;2023-04-21T11:14:38;97134.75;;;14.89;66.52
71938;BME280;59810;48.800;9.086;2023-04-21T11:17:10;97126.78;;;14.98;62.96
71938;BME280;59810;48.800;9.086;2023-04-21T11:19:38;97122.97;;;14.99;63.27
71938;BME280;59810;48.800;9.086;2023-04-21T11:22:04;97127.09;;;15.15;63.19
71938;BME280;59810;48.800;9.086;2023-04-21T11:24:30;97133.59;;;15.19;63.24
71938;BME280;59810;48.800;9.086;2023-04-21T11:26:56;97129.06;;;15.34;63.07
71938;BME280;59810;48.800;9.086;2023-04-21T11:29:22;97119.66;;;15.45;61.12
71938;BME280;59810;48.800;9.086;2023-04-21T11:31:48;97121.19;;;15.51;61.42
71938;BME280;59810;48.800;9.086;2023-04-21T11:34:15;97121.69;;;15.53;60.44
71938;BME280;59810;48.800;9.086;2023-04-21T11:36:44;97119.44;;;15.60;60.38
71938;BME280;59810;48.800;9.086;2023-04-21T11:39:15;97117.47;;;15.66;62.66
71938;BME280;59810;48.800;9.086;2023-04-21T11:41:47;97114.28;;;15.96;61.18
71938;BME280;59810;48.800;9.086;2023-04-21T11:44:29;97111.19;;;16.03;60.73
71938;BME280;59810;48.800;9.086;2023-04-21T11:46:57;97110.66;;;16.01;58.13
71938;BME280;59810;48.800;9.086;2023-04-21T11:49:27;97110.06;;;16.04;58.85
71938;BME280;59810;48.800;9.086;2023-04-21T11:51:54;97112.13;;;16.12;58.16
71938;BME280;59810;48.800;9.086;2023-04-21T11:54:20;97122.38;;;16.34;57.88
71938;BME280;59810;48.800;9.086;2023-04-21T11:56:48;97113.78;;;16.27;57.46
71938;BME280;59810;48.800;9.086;2023-04-21T11:59:15;97114.06;;;16.25;58.62
71938;BME280;59810;48.800;9.086;2023-04-21T12:01:45;97109.88;;;16.46;58.13
71938;BME280;59810;48.800;9.086;2023-04-21T12:04:19;97106.56;;;16.63;57.18
71938;BME280;59810;48.800;9.086;2023-04-21T12:06:46;97111.44;;;16.80;56.64
71938;BME280;59810;48.800;9.086;2023-04-21T12:09:21;97108.50;;;17.18;54.75
71938;BME280;59810;48.800;9.086;2023-04-21T12:11:50;97101.66;;;17.06;56.58
71938;BME280;59810;48.800;9.086;2023-04-21T12:14:20;97104.84;;;17.36;55.82
71938;BME280;59810;48.800;9.086;2023-04-21T12:16:53;97103.84;;;17.18;56.07
71938;BME280;59810;48.800;9.086;2023-04-21T12:19:40;97097.81;;;17.71;55.35
71938;BME280;59810;48.800;9.086;2023-04-21T12:22:13;97094.66;;;18.00;53.35
71938;BME280;59810;48.800;9.086;2023-04-21T12:24:39;97091.66;;;18.32;53.81
71938;BME280;59810;48.800;9.086;2023-04-21T12:27:08;97088.13;;;18.63;52.17
71938;BME280;59810;48.800;9.086;2023-04-21T12:29:35;97085.28;;;18.77;52.80
71938;BME280;59810;48.800;9.086;2023-04-21T12:32:03;97085.69;;;18.92;52.36
71938;BME280;59810;48.800;9.086;2023-04-21T12:34:31;97084.41;;;18.59;51.97
71938;BME280;59810;48.800;9.086;2023-04-21T12:36:58;97079.66;;;18.73;52.74
71938;BME280;59810;48.800;9.086;2023-04-21T12:39:25;97076.94;;;18.82;52.98
71938;BME280;59810;48.800;9.086;2023-04-21T12:41:50;97065.75;;;19.01;52.63
71938;BME280;59810;48.800;9.086;2023-04-21T12:44:18;97071.16;;;18.83;52.20
71938;BME280;59810;48.800;9.086;2023-04-21T12:46:43;97069.19;;;19.49;52.15
71938;BME280;59810;48.800;9.086;2023-04-21T12:49:09;97063.44;;;19.85;50.10
71938;BME280;59810;48.800;9.086;2023-04-21T12:51:37;97064.06;;;20.00;48.27
71938;BME280;59810;48.800;9.086;2023-04-21T12:54:03;97076.66;;;19.75;48.89
71938;BME280;59810;48.800;9.086;2023-04-21T12:56:28;97060.03;;;19.97;48.23
71938;BME280;59810;48.800;9.086;2023-04-21T12:58:54;97070.22;;;19.53;47.66
71938;BME280;59810;48.800;9.086;2023-04-21T13:01:23;97065.22;;;19.55;50.58
71938;BME280;59810;48.800;9.086;2023-04-21T13:03:48;97063.56;;;20.06;49.62
71938;BME280;59810;48.800;9.086;2023-04-21T13:06:16;97053.22;;;20.12;48.77
71938;BME280;59810;48.800;9.086;2023-04-21T13:08:41;97053.44;;;19.98;46.85
71938;BME280;59810;48.800;9.086;2023-04-21T13:11:07;97057.97;;;19.60;48.11
71938;BME280;59810;48.800;9.086;2023-04-21T13:13:32;97063.38;;;20.11;49.37
71938;BME280;59810;48.800;9.086;2023-04-21T13:15:58;97060.81;;;20.06;46.25
71938;BME280;59810;48.800;9.086;2023-04-21T13:18:23;97050.06;;;19.84;47.16